Terminal Aerodrome Forecast
Issued by NWS

Home | Current Version | Previous Version | Text Only | Print | Product List | Glossary On
Versions: 1 2 3 4 5 6 7 8 9 10 11 12 13 14 15 16 17
000
FTUS42 KMLB 180536
TAFISM
TAF
KISM 180536Z 1806/1906 VRB03KT P6SM FEW004 BKN100
      TEMPO 1809/1812 5SM BR BKN004
     FM181400 25007KT P6SM SCT025 BKN250
     FM181700 27009KT P6SM VCTS SCT030CB SCT060 BKN250
     FM190000 16003KT P6SM SCT040 BKN100 BKN250
      AMD NOT SKED TIL 181200=

USA.gov is the U.S. government's official web portal to all federal, state and local government web resources and services.